Allandale, FL

6:01 AM EST on November 23, 2014 (GMT -0500)
Muff & Cheryls Colonial Colony South Home | Change Station
CLOSE
Current Station
Personal Weather Station
Location: Daytona Beach, FL
Elevation: 36 ft
Nearby Weather Stations
Active Advisory: Coastal Hazard Statement

Elev 36 ft 29.17 °N, 81.03 °W | Updated 1 second ago

Light Rain
Light Rain Mist
72.0 °F
Feels Like 72.0 °F
N
4.5
Wind Variable Wind from SSW
Gusts 7.4 mph

Today
High -- | Low -- °F
--% Chance of Precip.
Yesterday
High -- | Low -- °F
Precip. -- in
6:54 AM 5:26 PM
New Moon, 1% visible
Pressure 30.01 in
Visibility 3.0 miles
Clouds Mostly Cloudy 700 ft
Overcast 1300 ft
Dew Point 71 °F
Humidity 97%
Rainfall 0.27 in
Snow Depth Not available.
UV 0 out of 12
Pollen 3.50 out of 12
Air Quality Not available.
Flu Activity Not available.
METAR KDAB 231053Z 17008KT 3SM -RA BR BKN007 OVC013 22/21 A3001 RMK AO2 SLP161 P0010 T02220211

More Conditions Fewer Conditions

Pressure 30.01 in
Visibility 3.0 miles
Clouds Mostly Cloudy 700 ft
Overcast 1300 ft
Dew Point 71 °F
Humidity 97%
Rainfall 0.27 in
Snow Depth Not available.
UV 0 out of 12
Pollen 3.50 out of 12
Air Quality Not available.
Flu Activity Not available.
METAR KDAB 231053Z 17008KT 3SM -RA BR BKN007 OVC013 22/21 A3001 RMK AO2 SLP161 P0010 T02220211

More Conditions Fewer Conditions

10-Day Weather Forecast

Almanac

Astronomy

Nov. 23, 2014 Rise Set
Actual Time
Civil Twilight
Nautical Twilight
Astronomical Twilight
Moon
Length of Visible Light
Length of Day
Tomorrow will be .
, % of the Moon is Illuminated

Today's Extremes

State Highs State Lows

Community

WunderPhotos

Upload Photos

1,773,033 photos uploaded!

WunderBlogs® & News

Nearby

Air Quality

  Air Quality AQ Index Pollutant
Not available.

Snow Depth

Station Depth Elevation

Earthquake Activity

City Distance Mag. Time & Date
Minimum magnitude displayed is 2.5.

Coastal Water Temperatures

Place Temperature

Nearby Weather Stations